sensor_id;sensor_type;location;lat;lon;timestamp;temperature;humidity
14079;DHT22;7115;50.150;8.568;2023-03-03T00:01:13;6.90;72.80
14079;DHT22;7115;50.150;8.568;2023-03-03T00:03:41;6.80;72.90
14079;DHT22;7115;50.150;8.568;2023-03-03T00:06:10;6.80;73.20
14079;DHT22;7115;50.150;8.568;2023-03-03T00:08:38;6.60;73.30
14079;DHT22;7115;50.150;8.568;2023-03-03T00:11:06;6.80;73.70
14079;DHT22;7115;50.150;8.568;2023-03-03T00:13:41;6.70;73.80
14079;DHT22;7115;50.150;8.568;2023-03-03T00:16:22;6.70;74.10
14079;DHT22;7115;50.150;8.568;2023-03-03T00:18:50;6.60;74.30
14079;DHT22;7115;50.150;8.568;2023-03-03T00:21:26;6.60;74.50
14079;DHT22;7115;50.150;8.568;2023-03-03T00:24:20;6.50;74.80
14079;DHT22;7115;50.150;8.568;2023-03-03T00:26:49;6.50;75.20
14079;DHT22;7115;50.150;8.568;2023-03-03T00:29:35;6.50;75.20
14079;DHT22;7115;50.150;8.568;2023-03-03T00:32:21;6.50;75.60
14079;DHT22;7115;50.150;8.568;2023-03-03T00:34:49;6.40;75.80
14079;DHT22;7115;50.150;8.568;2023-03-03T00:37:26;6.30;75.90
14079;DHT22;7115;50.150;8.568;2023-03-03T00:39:59;6.20;76.20
14079;DHT22;7115;50.150;8.568;2023-03-03T00:42:27;6.20;76.60
14079;DHT22;7115;50.150;8.568;2023-03-03T00:44:58;6.20;76.90
14079;DHT22;7115;50.150;8.568;2023-03-03T00:47:29;6.20;77.20
14079;DHT22;7115;50.150;8.568;2023-03-03T00:50:20;6.20;77.50
14079;DHT22;7115;50.150;8.568;2023-03-03T00:53:02;6.30;77.90
14079;DHT22;7115;50.150;8.568;2023-03-03T00:55:30;6.30;77.90
14079;DHT22;7115;50.150;8.568;2023-03-03T00:57:57;6.20;78.00
14079;DHT22;7115;50.150;8.568;2023-03-03T01:00:24;6.30;78.30
14079;DHT22;7115;50.150;8.568;2023-03-03T01:02:51;6.20;78.50
14079;DHT22;7115;50.150;8.568;2023-03-03T01:05:19;6.20;78.70
14079;DHT22;7115;50.150;8.568;2023-03-03T01:07:47;6.20;79.00
14079;DHT22;7115;50.150;8.568;2023-03-03T01:10:15;6.20;79.20
14079;DHT22;7115;50.150;8.568;2023-03-03T01:12:42;6.20;79.50
14079;DHT22;7115;50.150;8.568;2023-03-03T01:15:10;6.20;79.70
14079;DHT22;7115;50.150;8.568;2023-03-03T01:17:38;6.20;79.90
14079;DHT22;7115;50.150;8.568;2023-03-03T01:20:08;6.20;80.10
14079;DHT22;7115;50.150;8.568;2023-03-03T01:22:36;6.20;80.30
14079;DHT22;7115;50.150;8.568;2023-03-03T01:25:03;6.20;80.40
14079;DHT22;7115;50.150;8.568;2023-03-03T01:27:33;6.20;80.60
14079;DHT22;7115;50.150;8.568;2023-03-03T01:30:00;6.20;80.90
14079;DHT22;7115;50.150;8.568;2023-03-03T01:32:27;6.20;81.00
14079;DHT22;7115;50.150;8.568;2023-03-03T01:34:54;6.20;81.20
14079;DHT22;7115;50.150;8.568;2023-03-03T01:37:21;6.20;81.40
14079;DHT22;7115;50.150;8.568;2023-03-03T01:39:49;6.20;81.50
14079;DHT22;7115;50.150;8.568;2023-03-03T01:42:16;6.20;81.70
14079;DHT22;7115;50.150;8.568;2023-03-03T01:44:45;6.20;81.90
14079;DHT22;7115;50.150;8.568;2023-03-03T01:47:14;6.20;82.10
14079;DHT22;7115;50.150;8.568;2023-03-03T01:49:46;6.20;82.20
14079;DHT22;7115;50.150;8.568;2023-03-03T01:52:21;6.20;82.20
14079;DHT22;7115;50.150;8.568;2023-03-03T01:54:53;6.10;82.40
14079;DHT22;7115;50.150;8.568;2023-03-03T01:57:24;6.00;82.60
14079;DHT22;7115;50.150;8.568;2023-03-03T01:59:54;6.00;82.70
14079;DHT22;7115;50.150;8.568;2023-03-03T02:02:24;6.00;82.90
14079;DHT22;7115;50.150;8.568;2023-03-03T02:04:53;5.90;83.00
14079;DHT22;7115;50.150;8.568;2023-03-03T02:07:21;5.80;83.10
14079;DHT22;7115;50.150;8.568;2023-03-03T02:09:53;5.70;83.40
14079;DHT22;7115;50.150;8.568;2023-03-03T02:12:27;5.70;83.60
14079;DHT22;7115;50.150;8.568;2023-03-03T02:14:57;5.60;83.80
14079;DHT22;7115;50.150;8.568;2023-03-03T02:17:24;5.60;84.00
14079;DHT22;7115;50.150;8.568;2023-03-03T02:19:55;5.60;84.10
14079;DHT22;7115;50.150;8.568;2023-03-03T02:22:32;5.60;84.40
14079;DHT22;7115;50.150;8.568;2023-03-03T02:25:01;5.60;84.60
14079;DHT22;7115;50.150;8.568;2023-03-03T02:27:30;5.60;84.70
14079;DHT22;7115;50.150;8.568;2023-03-03T02:30:08;5.50;84.80
14079;DHT22;7115;50.150;8.568;2023-03-03T02:32:35;5.50;85.00
14079;DHT22;7115;50.150;8.568;2023-03-03T02:35:24;5.50;85.10
14079;DHT22;7115;50.150;8.568;2023-03-03T02:37:54;5.50;85.40
14079;DHT22;7115;50.150;8.568;2023-03-03T02:40:23;5.50;85.40
14079;DHT22;7115;50.150;8.568;2023-03-03T02:42:55;5.50;85.60
14079;DHT22;7115;50.150;8.568;2023-03-03T02:45:23;5.50;86.60
14079;DHT22;7115;50.150;8.568;2023-03-03T02:47:50;5.50;85.90
14079;DHT22;7115;50.150;8.568;2023-03-03T02:50:17;5.50;86.10
14079;DHT22;7115;50.150;8.568;2023-03-03T02:52:44;5.50;86.20
14079;DHT22;7115;50.150;8.568;2023-03-03T02:55:11;5.50;86.40
14079;DHT22;7115;50.150;8.568;2023-03-03T02:57:38;5.50;86.60
14079;DHT22;7115;50.150;8.568;2023-03-03T03:00:08;5.50;86.70
14079;DHT22;7115;50.150;8.568;2023-03-03T03:02:35;5.50;86.90
14079;DHT22;7115;50.150;8.568;2023-03-03T03:05:02;5.50;87.00
14079;DHT22;7115;50.150;8.568;2023-03-03T03:07:29;5.40;86.90
14079;DHT22;7115;50.150;8.568;2023-03-03T03:09:55;5.30;87.00
14079;DHT22;7115;50.150;8.568;2023-03-03T03:12:22;5.30;87.10
14079;DHT22;7115;50.150;8.568;2023-03-03T03:14:49;5.20;87.20
14079;DHT22;7115;50.150;8.568;2023-03-03T03:17:17;5.20;87.40
14079;DHT22;7115;50.150;8.568;2023-03-03T03:19:44;5.20;87.40
14079;DHT22;7115;50.150;8.568;2023-03-03T03:22:11;5.10;87.50
14079;DHT22;7115;50.150;8.568;2023-03-03T03:24:38;5.10;87.70
14079;DHT22;7115;50.150;8.568;2023-03-03T03:27:05;5.00;87.70
14079;DHT22;7115;50.150;8.568;2023-03-03T03:29:32;5.00;87.90
14079;DHT22;7115;50.150;8.568;2023-03-03T03:31:59;4.90;88.00
14079;DHT22;7115;50.150;8.568;2023-03-03T03:34:27;4.90;88.10
14079;DHT22;7115;50.150;8.568;2023-03-03T03:36:54;4.90;88.50
14079;DHT22;7115;50.150;8.568;2023-03-03T03:39:21;4.80;88.60
14079;DHT22;7115;50.150;8.568;2023-03-03T03:41:47;4.80;89.50
14079;DHT22;7115;50.150;8.568;2023-03-03T03:44:14;4.80;89.20
14079;DHT22;7115;50.150;8.568;2023-03-03T03:46:41;4.80;89.20
14079;DHT22;7115;50.150;8.568;2023-03-03T03:49:08;4.70;89.30
14079;DHT22;7115;50.150;8.568;2023-03-03T03:51:36;4.70;89.40
14079;DHT22;7115;50.150;8.568;2023-03-03T03:54:07;4.60;90.00
14079;DHT22;7115;50.150;8.568;2023-03-03T03:56:34;4.60;89.60
14079;DHT22;7115;50.150;8.568;2023-03-03T03:59:01;4.60;89.70
14079;DHT22;7115;50.150;8.568;2023-03-03T04:01:28;4.50;90.00
14079;DHT22;7115;50.150;8.568;2023-03-03T04:03:54;4.50;90.00
14079;DHT22;7115;50.150;8.568;2023-03-03T04:06:21;4.40;90.00
14079;DHT22;7115;50.150;8.568;2023-03-03T04:08:50;4.40;90.00
14079;DHT22;7115;50.150;8.568;2023-03-03T04:11:17;4.30;90.10
14079;DHT22;7115;50.150;8.568;2023-03-03T04:13:44;4.30;90.10
14079;DHT22;7115;50.150;8.568;2023-03-03T04:16:10;4.10;90.20
14079;DHT22;7115;50.150;8.568;2023-03-03T04:18:38;4.10;90.30
14079;DHT22;7115;50.150;8.568;2023-03-03T04:21:05;4.10;90.50
14079;DHT22;7115;50.150;8.568;2023-03-03T04:23:31;3.80;90.50
14079;DHT22;7115;50.150;8.568;2023-03-03T04:26:01;4.00;90.60
14079;DHT22;7115;50.150;8.568;2023-03-03T04:28:28;4.00;90.70
14079;DHT22;7115;50.150;8.568;2023-03-03T04:30:55;4.00;90.70
14079;DHT22;7115;50.150;8.568;2023-03-03T04:33:22;4.00;90.80
14079;DHT22;7115;50.150;8.568;2023-03-03T04:35:48;4.00;90.90
14079;DHT22;7115;50.150;8.568;2023-03-03T04:38:17;4.00;90.90
14079;DHT22;7115;50.150;8.568;2023-03-03T04:40:44;3.90;91.00
14079;DHT22;7115;50.150;8.568;2023-03-03T04:43:12;3.90;91.10
14079;DHT22;7115;50.150;8.568;2023-03-03T04:45:40;3.80;91.10
14079;DHT22;7115;50.150;8.568;2023-03-03T04:48:07;3.80;91.20
14079;DHT22;7115;50.150;8.568;2023-03-03T04:50:34;3.80;91.20
14079;DHT22;7115;50.150;8.568;2023-03-03T04:53:01;3.70;91.30
14079;DHT22;7115;50.150;8.568;2023-03-03T04:55:28;3.70;91.40
14079;DHT22;7115;50.150;8.568;2023-03-03T04:57:54;3.60;91.50
14079;DHT22;7115;50.150;8.568;2023-03-03T05:00:23;3.60;91.50
14079;DHT22;7115;50.150;8.568;2023-03-03T05:02:50;3.60;91.60
14079;DHT22;7115;50.150;8.568;2023-03-03T05:05:17;3.50;91.70
14079;DHT22;7115;50.150;8.568;2023-03-03T05:07:44;3.40;91.70
14079;DHT22;7115;50.150;8.568;2023-03-03T05:10:11;3.40;91.80
14079;DHT22;7115;50.150;8.568;2023-03-03T05:12:38;3.30;91.90
14079;DHT22;7115;50.150;8.568;2023-03-03T05:15:06;3.30;92.00
14079;DHT22;7115;50.150;8.568;2023-03-03T05:17:34;3.10;92.40
14079;DHT22;7115;50.150;8.568;2023-03-03T05:20:01;3.20;92.20
14079;DHT22;7115;50.150;8.568;2023-03-03T05:22:28;3.10;92.20
14079;DHT22;7115;50.150;8.568;2023-03-03T05:24:56;3.10;92.30
14079;DHT22;7115;50.150;8.568;2023-03-03T05:27:23;3.10;92.50
14079;DHT22;7115;50.150;8.568;2023-03-03T05:29:50;3.10;92.50
14079;DHT22;7115;50.150;8.568;2023-03-03T05:32:17;3.10;92.60
14079;DHT22;7115;50.150;8.568;2023-03-03T05:34:45;3.10;92.70
14079;DHT22;7115;50.150;8.568;2023-03-03T05:37:12;3.10;92.70
14079;DHT22;7115;50.150;8.568;2023-03-03T05:39:41;3.00;92.80
14079;DHT22;7115;50.150;8.568;2023-03-03T05:42:11;3.00;92.90
14079;DHT22;7115;50.150;8.568;2023-03-03T05:44:38;3.00;93.00
14079;DHT22;7115;50.150;8.568;2023-03-03T05:47:05;3.10;93.00
14079;DHT22;7115;50.150;8.568;2023-03-03T05:49:33;3.10;93.10
14079;DHT22;7115;50.150;8.568;2023-03-03T05:52:01;3.20;93.20
14079;DHT22;7115;50.150;8.568;2023-03-03T05:54:28;3.20;93.20
14079;DHT22;7115;50.150;8.568;2023-03-03T05:56:55;3.20;93.60
14079;DHT22;7115;50.150;8.568;2023-03-03T05:59:23;3.20;93.30
14079;DHT22;7115;50.150;8.568;2023-03-03T06:01:50;3.20;93.30
14079;DHT22;7115;50.150;8.568;2023-03-03T06:04:17;3.20;93.30
14079;DHT22;7115;50.150;8.568;2023-03-03T06:06:44;3.20;93.40
14079;DHT22;7115;50.150;8.568;2023-03-03T06:09:12;3.20;93.40
14079;DHT22;7115;50.150;8.568;2023-03-03T06:11:39;3.20;93.40
14079;DHT22;7115;50.150;8.568;2023-03-03T06:14:06;3.10;93.50
14079;DHT22;7115;50.150;8.568;2023-03-03T06:16:33;3.10;93.60
14079;DHT22;7115;50.150;8.568;2023-03-03T06:18:59;3.10;93.70
14079;DHT22;7115;50.150;8.568;2023-03-03T06:21:27;3.10;93.70
14079;DHT22;7115;50.150;8.568;2023-03-03T06:23:54;3.10;93.80
14079;DHT22;7115;50.150;8.568;2023-03-03T06:26:22;3.10;93.90
14079;DHT22;7115;50.150;8.568;2023-03-03T06:28:49;3.10;93.90
14079;DHT22;7115;50.150;8.568;2023-03-03T06:31:19;3.20;94.00
14079;DHT22;7115;50.150;8.568;2023-03-03T06:33:46;3.20;94.10
14079;DHT22;7115;50.150;8.568;2023-03-03T06:36:13;3.40;94.20
14079;DHT22;7115;50.150;8.568;2023-03-03T06:38:40;3.50;94.30
14079;DHT22;7115;50.150;8.568;2023-03-03T06:41:07;3.60;94.30
14079;DHT22;7115;50.150;8.568;2023-03-03T06:43:35;3.80;94.30
14079;DHT22;7115;50.150;8.568;2023-03-03T06:46:03;4.00;94.30
14079;DHT22;7115;50.150;8.568;2023-03-03T06:48:31;4.00;94.30
14079;DHT22;7115;50.150;8.568;2023-03-03T06:50:59;4.30;94.30
14079;DHT22;7115;50.150;8.568;2023-03-03T06:53:26;4.50;94.30
14079;DHT22;7115;50.150;8.568;2023-03-03T06:55:54;4.70;94.20
14079;DHT22;7115;50.150;8.568;2023-03-03T06:58:22;4.90;94.20
14079;DHT22;7115;50.150;8.568;2023-03-03T07:00:55;5.20;94.20
14079;DHT22;7115;50.150;8.568;2023-03-03T07:03:23;5.50;94.10
14079;DHT22;7115;50.150;8.568;2023-03-03T07:05:51;5.80;94.10
14079;DHT22;7115;50.150;8.568;2023-03-03T07:08:21;6.10;94.00
14079;DHT22;7115;50.150;8.568;2023-03-03T07:10:50;6.40;93.80
14079;DHT22;7115;50.150;8.568;2023-03-03T07:13:20;6.70;93.60
14079;DHT22;7115;50.150;8.568;2023-03-03T07:15:48;6.90;93.30
14079;DHT22;7115;50.150;8.568;2023-03-03T07:18:30;7.20;93.10
14079;DHT22;7115;50.150;8.568;2023-03-03T07:21:12;7.50;92.90
14079;DHT22;7115;50.150;8.568;2023-03-03T07:23:40;7.80;92.70
14079;DHT22;7115;50.150;8.568;2023-03-03T07:26:12;8.20;92.50
14079;DHT22;7115;50.150;8.568;2023-03-03T07:28:40;8.50;92.10
14079;DHT22;7115;50.150;8.568;2023-03-03T07:31:24;8.90;91.90
14079;DHT22;7115;50.150;8.568;2023-03-03T07:33:55;9.10;91.50
14079;DHT22;7115;50.150;8.568;2023-03-03T07:36:26;9.40;91.20
14079;DHT22;7115;50.150;8.568;2023-03-03T07:38:55;9.40;90.80
14079;DHT22;7115;50.150;8.568;2023-03-03T07:41:22;9.40;90.60
14079;DHT22;7115;50.150;8.568;2023-03-03T07:43:51;9.50;90.40
14079;DHT22;7115;50.150;8.568;2023-03-03T07:46:27;9.50;90.20
14079;DHT22;7115;50.150;8.568;2023-03-03T07:48:57;9.50;90.10
14079;DHT22;7115;50.150;8.568;2023-03-03T07:51:26;9.40;89.90
14079;DHT22;7115;50.150;8.568;2023-03-03T07:54:04;9.20;89.70
14079;DHT22;7115;50.150;8.568;2023-03-03T07:56:39;9.00;89.70
14079;DHT22;7115;50.150;8.568;2023-03-03T07:59:17;8.80;89.60
14079;DHT22;7115;50.150;8.568;2023-03-03T08:01:50;8.50;89.50
14079;DHT22;7115;50.150;8.568;2023-03-03T08:04:22;8.20;89.50
14079;DHT22;7115;50.150;8.568;2023-03-03T08:06:52;7.90;89.80
14079;DHT22;7115;50.150;8.568;2023-03-03T08:09:42;7.70;90.00
14079;DHT22;7115;50.150;8.568;2023-03-03T08:12:23;7.70;90.20
14079;DHT22;7115;50.150;8.568;2023-03-03T08:14:53;7.60;90.20
14079;DHT22;7115;50.150;8.568;2023-03-03T08:17:22;7.50;90.20
14079;DHT22;7115;50.150;8.568;2023-03-03T08:19:52;7.40;90.20
14079;DHT22;7115;50.150;8.568;2023-03-03T08:22:32;7.30;90.20
14079;DHT22;7115;50.150;8.568;2023-03-03T08:25:01;7.10;90.30
14079;DHT22;7115;50.150;8.568;2023-03-03T08:27:28;6.90;90.40
14079;DHT22;7115;50.150;8.568;2023-03-03T08:29:55;6.80;90.50
14079;DHT22;7115;50.150;8.568;2023-03-03T08:32:22;6.70;90.70
14079;DHT22;7115;50.150;8.568;2023-03-03T08:34:51;6.50;90.80
14079;DHT22;7115;50.150;8.568;2023-03-03T08:37:17;6.40;90.90
14079;DHT22;7115;50.150;8.568;2023-03-03T08:39:44;6.30;91.00
14079;DHT22;7115;50.150;8.568;2023-03-03T08:42:12;6.30;91.20
14079;DHT22;7115;50.150;8.568;2023-03-03T08:44:41;6.20;91.20
14079;DHT22;7115;50.150;8.568;2023-03-03T08:47:08;6.20;91.30
14079;DHT22;7115;50.150;8.568;2023-03-03T08:49:35;6.10;91.40
14079;DHT22;7115;50.150;8.568;2023-03-03T08:52:03;6.10;91.50
14079;DHT22;7115;50.150;8.568;2023-03-03T08:54:31;6.10;91.50
14079;DHT22;7115;50.150;8.568;2023-03-03T08:56:58;6.10;91.60
14079;DHT22;7115;50.150;8.568;2023-03-03T08:59:25;6.10;91.60
14079;DHT22;7115;50.150;8.568;2023-03-03T09:01:52;6.00;91.60
14079;DHT22;7115;50.150;8.568;2023-03-03T09:04:19;6.00;91.70
14079;DHT22;7115;50.150;8.568;2023-03-03T09:06:45;6.00;91.70
14079;DHT22;7115;50.150;8.568;2023-03-03T09:09:14;6.10;91.90
14079;DHT22;7115;50.150;8.568;2023-03-03T09:11:41;6.60;92.30
14079;DHT22;7115;50.150;8.568;2023-03-03T09:14:11;7.50;92.40
14079;DHT22;7115;50.150;8.568;2023-03-03T09:16:39;8.60;92.10
14079;DHT22;7115;50.150;8.568;2023-03-03T09:19:18;9.70;91.60
14079;DHT22;7115;50.150;8.568;2023-03-03T09:21:46;10.80;90.90
14079;DHT22;7115;50.150;8.568;2023-03-03T09:24:22;11.60;90.20
14079;DHT22;7115;50.150;8.568;2023-03-03T09:26:50;12.30;88.80
14079;DHT22;7115;50.150;8.568;2023-03-03T09:29:23;13.00;87.70
14079;DHT22;7115;50.150;8.568;2023-03-03T09:31:52;13.60;85.90
14079;DHT22;7115;50.150;8.568;2023-03-03T09:34:23;13.90;84.20
14079;DHT22;7115;50.150;8.568;2023-03-03T09:36:51;14.20;83.00
14079;DHT22;7115;50.150;8.568;2023-03-03T09:39:21;14.50;81.80
14079;DHT22;7115;50.150;8.568;2023-03-03T09:42:11;14.50;80.50
14079;DHT22;7115;50.150;8.568;2023-03-03T09:45:07;14.40;79.20
14079;DHT22;7115;50.150;8.568;2023-03-03T09:47:50;14.40;78.80
14079;DHT22;7115;50.150;8.568;2023-03-03T09:50:29;14.40;78.70
14079;DHT22;7115;50.150;8.568;2023-03-03T09:53:08;14.40;77.80
14079;DHT22;7115;50.150;8.568;2023-03-03T09:55:47;14.50;77.60
14079;DHT22;7115;50.150;8.568;2023-03-03T09:58:24;14.70;77.00
14079;DHT22;7115;50.150;8.568;2023-03-03T10:01:01;14.80;76.30
14079;DHT22;7115;50.150;8.568;2023-03-03T10:03:51;15.20;76.10
14079;DHT22;7115;50.150;8.568;2023-03-03T10:06:26;15.80;75.20
14079;DHT22;7115;50.150;8.568;2023-03-03T10:09:07;16.50;74.30
14079;DHT22;7115;50.150;8.568;2023-03-03T10:11:41;17.00;72.70
14079;DHT22;7115;50.150;8.568;2023-03-03T10:14:28;17.40;71.60
14079;DHT22;7115;50.150;8.568;2023-03-03T10:17:08;18.10;70.30
14079;DHT22;7115;50.150;8.568;2023-03-03T10:19:39;18.80;69.00
14079;DHT22;7115;50.150;8.568;2023-03-03T10:22:18;19.20;67.40
14079;DHT22;7115;50.150;8.568;2023-03-03T10:24:59;19.30;65.90
14079;DHT22;7115;50.150;8.568;2023-03-03T10:27:42;19.20;64.90
14079;DHT22;7115;50.150;8.568;2023-03-03T10:30:16;18.90;64.40
14079;DHT22;7115;50.150;8.568;2023-03-03T10:33:08;18.80;64.40
14079;DHT22;7115;50.150;8.568;2023-03-03T10:35:56;19.00;63.80
14079;DHT22;7115;50.150;8.568;2023-03-03T10:38:53;18.50;62.90
14079;DHT22;7115;50.150;8.568;2023-03-03T10:41:48;17.90;62.90
14079;DHT22;7115;50.150;8.568;2023-03-03T10:44:26;17.60;63.50
14079;DHT22;7115;50.150;8.568;2023-03-03T10:47:14;17.80;63.60
14079;DHT22;7115;50.150;8.568;2023-03-03T10:49:51;17.60;62.90
14079;DHT22;7115;50.150;8.568;2023-03-03T10:52:32;17.50;63.30
14079;DHT22;7115;50.150;8.568;2023-03-03T10:55:13;17.60;62.90
14079;DHT22;7115;50.150;8.568;2023-03-03T10:57:51;17.60;62.70
14079;DHT22;7115;50.150;8.568;2023-03-03T11:00:35;17.70;62.70
14079;DHT22;7115;50.150;8.568;2023-03-03T11:06:27;18.40;61.60
14079;DHT22;7115;50.150;8.568;2023-03-03T11:08:58;18.40;61.40
14079;DHT22;7115;50.150;8.568;2023-03-03T11:11:37;18.40;60.80
14079;DHT22;7115;50.150;8.568;2023-03-03T11:14:12;18.30;60.40
14079;DHT22;7115;50.150;8.568;2023-03-03T11:16:56;18.10;60.10
14079;DHT22;7115;50.150;8.568;2023-03-03T11:19:48;18.00;60.10
14079;DHT22;7115;50.150;8.568;2023-03-03T11:22:33;17.80;59.80
14079;DHT22;7115;50.150;8.568;2023-03-03T11:25:13;17.70;60.70
14079;DHT22;7115;50.150;8.568;2023-03-03T11:28:07;17.60;59.90
14079;DHT22;7115;50.150;8.568;2023-03-03T11:30:46;17.40;59.70
14079;DHT22;7115;50.150;8.568;2023-03-03T11:33:21;17.20;60.10
14079;DHT22;7115;50.150;8.568;2023-03-03T11:35:52;17.10;60.30
14079;DHT22;7115;50.150;8.568;2023-03-03T11:38:35;16.90;60.10
14079;DHT22;7115;50.150;8.568;2023-03-03T11:41:12;16.60;60.20
14079;DHT22;7115;50.150;8.568;2023-03-03T11:43:45;16.30;60.60
14079;DHT22;7115;50.150;8.568;2023-03-03T11:46:15;15.80;60.80
14079;DHT22;7115;50.150;8.568;2023-03-03T11:48:49;15.20;61.20
14079;DHT22;7115;50.150;8.568;2023-03-03T11:51:22;14.70;61.80
14079;DHT22;7115;50.150;8.568;2023-03-03T11:53:57;14.20;62.50
14079;DHT22;7115;50.150;8.568;2023-03-03T11:56:27;13.90;63.10
14079;DHT22;7115;50.150;8.568;2023-03-03T11:59:13;13.80;63.80
14079;DHT22;7115;50.150;8.568;2023-03-03T12:01:47;13.50;64.30
14079;DHT22;7115;50.150;8.568;2023-03-03T12:04:19;13.20;64.80
14079;DHT22;7115;50.150;8.568;2023-03-03T12:06:58;12.90;65.30
14079;DHT22;7115;50.150;8.568;2023-03-03T12:09:48;12.80;65.90
14079;DHT22;7115;50.150;8.568;2023-03-03T12:12:22;12.60;66.20
14079;DHT22;7115;50.150;8.568;2023-03-03T12:14:59;12.40;66.70
14079;DHT22;7115;50.150;8.568;2023-03-03T12:17:42;12.30;67.40
14079;DHT22;7115;50.150;8.568;2023-03-03T12:20:17;12.10;67.80
14079;DHT22;7115;50.150;8.568;2023-03-03T12:22:55;12.00;68.20
14079;DHT22;7115;50.150;8.568;2023-03-03T12:25:36;12.00;68.50
14079;DHT22;7115;50.150;8.568;2023-03-03T12:28:08;12.00;68.60
14079;DHT22;7115;50.150;8.568;2023-03-03T12:30:53;12.00;68.80
14079;DHT22;7115;50.150;8.568;2023-03-03T12:33:32;12.00;69.10
14079;DHT22;7115;50.150;8.568;2023-03-03T12:36:09;12.10;69.10
14079;DHT22;7115;50.150;8.568;2023-03-03T12:38:47;12.30;69.10
14079;DHT22;7115;50.150;8.568;2023-03-03T12:41:25;12.40;69.00
14079;DHT22;7115;50.150;8.568;2023-03-03T12:43:57;12.50;68.90
14079;DHT22;7115;50.150;8.568;2023-03-03T12:46:38;12.70;68.90
14079;DHT22;7115;50.150;8.568;2023-03-03T12:49:09;12.70;68.60
14079;DHT22;7115;50.150;8.568;2023-03-03T12:51:51;12.70;68.50
14079;DHT22;7115;50.150;8.568;2023-03-03T12:54:32;12.80;68.40
14079;DHT22;7115;50.150;8.568;2023-03-03T12:57:10;12.90;68.20
14079;DHT22;7115;50.150;8.568;2023-03-03T12:59:47;13.00;68.10
14079;DHT22;7115;50.150;8.568;2023-03-03T13:02:40;13.00;67.70
14079;DHT22;7115;50.150;8.568;2023-03-03T13:05:18;12.80;67.70
14079;DHT22;7115;50.150;8.568;2023-03-03T13:07:55;12.80;67.90
14079;DHT22;7115;50.150;8.568;2023-03-03T13:10:26;12.80;67.70
14079;DHT22;7115;50.150;8.568;2023-03-03T13:13:05;12.80;67.80
14079;DHT22;7115;50.150;8.568;2023-03-03T13:15:39;12.90;68.00
14079;DHT22;7115;50.150;8.568;2023-03-03T13:18:28;12.80;67.80
14079;DHT22;7115;50.150;8.568;2023-03-03T13:21:02;12.80;67.90
14079;DHT22;7115;50.150;8.568;2023-03-03T13:23:42;12.90;68.00
14079;DHT22;7115;50.150;8.568;2023-03-03T13:26:17;12.70;68.00
14079;DHT22;7115;50.150;8.568;2023-03-03T13:28:58;12.70;68.20
14079;DHT22;7115;50.150;8.568;2023-03-03T13:31:32;12.60;68.20
14079;DHT22;7115;50.150;8.568;2023-03-03T13:34:00;12.60;68.30
14079;DHT22;7115;50.150;8.568;2023-03-03T13:36:33;12.60;68.50
14079;DHT22;7115;50.150;8.568;2023-03-03T13:39:06;12.50;68.50
14079;DHT22;7115;50.150;8.568;2023-03-03T13:41:43;12.30;68.70
14079;DHT22;7115;50.150;8.568;2023-03-03T13:44:17;12.30;68.80
14079;DHT22;7115;50.150;8.568;2023-03-03T13:47:00;12.20;69.10
14079;DHT22;7115;50.150;8.568;2023-03-03T13:49:44;12.20;69.30
14079;DHT22;7115;50.150;8.568;2023-03-03T13:52:18;12.20;69.60
14079;DHT22;7115;50.150;8.568;2023-03-03T13:54:58;12.10;69.90
14079;DHT22;7115;50.150;8.568;2023-03-03T13:57:43;12.00;70.10
14079;DHT22;7115;50.150;8.568;2023-03-03T14:00:19;12.00;70.30
14079;DHT22;7115;50.150;8.568;2023-03-03T14:05:45;12.00;70.60
14079;DHT22;7115;50.150;8.568;2023-03-03T14:08:24;11.90;70.50
14079;DHT22;7115;50.150;8.568;2023-03-03T14:11:06;11.90;70.60
14079;DHT22;7115;50.150;8.568;2023-03-03T14:13:43;11.80;70.60
14079;DHT22;7115;50.150;8.568;2023-03-03T14:16:17;11.70;70.80
14079;DHT22;7115;50.150;8.568;2023-03-03T14:18:53;11.70;70.90
14079;DHT22;7115;50.150;8.568;2023-03-03T14:21:27;11.70;70.90
14079;DHT22;7115;50.150;8.568;2023-03-03T14:23:59;11.90;70.80
14079;DHT22;7115;50.150;8.568;2023-03-03T14:26:29;11.90;70.50
14079;DHT22;7115;50.150;8.568;2023-03-03T14:29:21;12.00;70.50
14079;DHT22;7115;50.150;8.568;2023-03-03T14:31:55;12.10;70.60
14079;DHT22;7115;50.150;8.568;2023-03-03T14:34:33;12.10;70.50
14079;DHT22;7115;50.150;8.568;2023-03-03T14:37:22;12.10;70.60
14079;DHT22;7115;50.150;8.568;2023-03-03T14:40:15;12.10;70.60
14079;DHT22;7115;50.150;8.568;2023-03-03T14:42:53;12.00;70.70
14079;DHT22;7115;50.150;8.568;2023-03-03T14:45:29;11.90;70.80
14079;DHT22;7115;50.150;8.568;2023-03-03T14:47:57;11.80;71.10
14079;DHT22;7115;50.150;8.568;2023-03-03T14:50:36;11.80;71.30
14079;DHT22;7115;50.150;8.568;2023-03-03T14:53:13;11.80;71.50
14079;DHT22;7115;50.150;8.568;2023-03-03T14:55:42;11.80;71.60
14079;DHT22;7115;50.150;8.568;2023-03-03T14:58:33;11.80;71.70
14079;DHT22;7115;50.150;8.568;2023-03-03T15:01:15;11.90;71.80
14079;DHT22;7115;50.150;8.568;2023-03-03T15:03:48;11.90;71.80
14079;DHT22;7115;50.150;8.568;2023-03-03T15:06:32;11.80;71.80
14079;DHT22;7115;50.150;8.568;2023-03-03T15:12:18;11.80;72.10
14079;DHT22;7115;50.150;8.568;2023-03-03T15:14:48;11.70;72.00
14079;DHT22;7115;50.150;8.568;2023-03-03T15:17:34;11.60;72.10
14079;DHT22;7115;50.150;8.568;2023-03-03T15:20:36;11.60;72.50
14079;DHT22;7115;50.150;8.568;2023-03-03T15:23:13;11.60;72.60
14079;DHT22;7115;50.150;8.568;2023-03-03T15:25:45;11.50;72.60
14079;DHT22;7115;50.150;8.568;2023-03-03T15:28:26;11.30;72.60
14079;DHT22;7115;50.150;8.568;2023-03-03T15:31:04;11.30;72.80
14079;DHT22;7115;50.150;8.568;2023-03-03T15:33:42;11.30;72.90
14079;DHT22;7115;50.150;8.568;2023-03-03T15:36:15;11.20;73.70
14079;DHT22;7115;50.150;8.568;2023-03-03T15:38:53;11.20;73.10
14079;DHT22;7115;50.150;8.568;2023-03-03T15:41:29;11.20;73.20
14079;DHT22;7115;50.150;8.568;2023-03-03T15:44:08;11.20;73.30
14079;DHT22;7115;50.150;8.568;2023-03-03T15:46:53;11.20;73.30
14079;DHT22;7115;50.150;8.568;2023-03-03T15:49:46;11.30;73.30
14079;DHT22;7115;50.150;8.568;2023-03-03T15:52:23;11.20;73.10
14079;DHT22;7115;50.150;8.568;2023-03-03T15:55:06;11.20;73.10
14079;DHT22;7115;50.150;8.568;2023-03-03T15:57:46;11.20;73.10
14079;DHT22;7115;50.150;8.568;2023-03-03T16:00:34;11.20;73.20
14079;DHT22;7115;50.150;8.568;2023-03-03T16:03:10;11.30;73.60
14079;DHT22;7115;50.150;8.568;2023-03-03T16:05:45;11.40;73.70
14079;DHT22;7115;50.150;8.568;2023-03-03T16:08:18;11.50;73.70
14079;DHT22;7115;50.150;8.568;2023-03-03T16:10:52;11.50;73.40
14079;DHT22;7115;50.150;8.568;2023-03-03T16:13:30;11.50;73.20
14079;DHT22;7115;50.150;8.568;2023-03-03T16:16:23;11.50;73.10
14079;DHT22;7115;50.150;8.568;2023-03-03T16:19:12;11.40;73.10
14079;DHT22;7115;50.150;8.568;2023-03-03T16:24:50;11.20;73.10
14079;DHT22;7115;50.150;8.568;2023-03-03T16:27:23;11.20;73.30
14079;DHT22;7115;50.150;8.568;2023-03-03T16:30:02;11.00;73.40
14079;DHT22;7115;50.150;8.568;2023-03-03T16:32:38;10.90;73.60
14079;DHT22;7115;50.150;8.568;2023-03-03T16:35:20;10.80;73.80
14079;DHT22;7115;50.150;8.568;2023-03-03T16:37:55;10.70;73.90
14079;DHT22;7115;50.150;8.568;2023-03-03T16:40:25;10.70;74.00
14079;DHT22;7115;50.150;8.568;2023-03-03T16:42:59;10.70;74.00
14079;DHT22;7115;50.150;8.568;2023-03-03T16:45:33;10.80;73.90